Time;durP1;ratioP1;P1;durP2;ratioP2;P2;SDS_P1;SDS_P2;PMS_P1;PMS_P2;Temp;Humidity;BMP_temperature;BMP_pressure;BME280_temperature;BME280_humidity;BME280_pressure;Samples;Min_cycle;Max_cycle;Signal;HPM_P1;HPM_P2
2024/01/20 00:02:50;;;;;;;40.00;16.90;;;;;;;-1.65;100.00;99649.36;273189;1275;22392;-83
2024/01/20 00:09:32;;;;;;;20.10;8.60;;;;;;;-1.62;100.00;99644.89;273352;1273;22435;-83
2024/01/20 00:16:25;;;;;;;32.30;12.40;;;;;;;-1.61;100.00;99636.98;273341;1271;22422;-84
2024/01/20 00:22:48;;;;;;;30.30;12.00;;;;;;;-1.58;100.00;99652.48;273423;1275;22204;-84
2024/01/20 00:28:51;;;;;;;31.10;11.90;;;;;;;-1.56;100.00;99657.08;273676;1271;22337;-84
2024/01/20 00:34:54;;;;;;;38.60;13.00;;;;;;;-1.53;100.00;99648.79;273716;1275;22364;-84
2024/01/20 00:41:36;;;;;;;29.00;11.20;;;;;;;-1.50;100.00;99652.80;273814;1267;22302;-84
2024/01/20 00:48:40;;;;;;;29.00;12.70;;;;;;;-1.47;100.00;99652.29;273315;1276;23772;-84
2024/01/20 00:56:05;;;;;;;33.00;13.70;;;;;;;-1.44;100.00;99661.99;270784;1269;22550;-83
2024/01/20 01:03:50;;;;;;;33.10;14.40;;;;;;;-1.42;100.00;99674.06;271094;1269;22225;-84
2024/01/20 01:09:55;;;;;;;37.20;16.00;;;;;;;-1.40;100.00;99686.35;271970;1276;22605;-83
2024/01/20 01:16:38;;;;;;;32.70;13.90;;;;;;;-1.40;100.00;99690.91;271186;1275;22550;-83
2024/01/20 01:24:00;;;;;;;33.40;12.60;;;;;;;-1.38;100.00;99693.65;273702;1269;22196;-84
2024/01/20 01:31:39;;;;;;;31.20;13.40;;;;;;;-1.35;100.00;99689.90;272840;1270;22962;-84
2024/01/20 01:38:44;;;;;;;31.40;13.60;;;;;;;-1.34;100.00;99686.63;273614;1270;22367;-84
2024/01/20 01:45:26;;;;;;;31.70;13.40;;;;;;;-1.33;100.00;99681.94;273975;1275;23340;-84
2024/01/20 01:52:08;;;;;;;35.40;16.60;;;;;;;-1.31;100.00;99678.59;273776;1276;23380;-84
2024/01/20 01:59:12;;;;;;;33.70;14.70;;;;;;;-1.32;100.00;99675.80;273771;1271;23346;-84
2024/01/20 02:06:35;;;;;;;31.60;16.00;;;;;;;-1.33;100.00;99681.73;273851;1273;22959;-84
2024/01/20 02:14:19;;;;;;;41.90;18.30;;;;;;;-1.34;100.00;99689.40;273186;1273;22431;-84
2024/01/20 02:21:41;;;;;;;37.30;16.90;;;;;;;-1.35;100.00;99702.47;273644;1268;22475;-83
2024/01/20 02:28:42;;;;;;;42.80;15.80;;;;;;;-1.35;100.00;99712.35;273414;1270;23410;-84
2024/01/20 02:34:44;;;;;;;34.30;16.70;;;;;;;-1.36;100.00;99713.48;271718;1260;124994;-80
2024/01/20 02:40:46;;;;;;;35.60;17.50;;;;;;;-1.38;100.00;99710.07;273383;1269;22421;-81
2024/01/20 02:46:47;;;;;;;40.30;16.40;;;;;;;-1.37;100.00;99705.23;273315;1269;22204;-80
2024/01/20 02:52:51;;;;;;;37.80;14.50;;;;;;;-1.38;100.00;99708.67;273351;1269;22196;-80
2024/01/20 02:58:53;;;;;;;31.20;13.90;;;;;;;-1.42;100.00;99710.37;273712;1269;23076;-80
2024/01/20 03:05:15;;;;;;;34.70;14.00;;;;;;;-1.51;100.00;99706.52;273670;1269;22386;-81
2024/01/20 03:11:16;;;;;;;29.30;12.80;;;;;;;-1.62;100.00;99710.50;273572;1269;22405;-80
2024/01/20 03:17:21;;;;;;;27.60;12.10;;;;;;;-1.74;100.00;99715.56;273601;1269;22345;-80
2024/01/20 03:23:22;;;;;;;22.70;10.70;;;;;;;-1.84;100.00;99726.78;273555;1269;23603;-80
2024/01/20 03:29:25;;;;;;;34.80;11.80;;;;;;;-1.91;100.00;99730.20;273549;1273;22230;-79
2024/01/20 03:35:27;;;;;;;32.70;13.90;;;;;;;-1.96;100.00;99729.68;273412;1269;22401;-79
2024/01/20 03:41:40;;;;;;;37.00;14.40;;;;;;;-2.04;100.00;99730.31;273750;1276;22303;-79
2024/01/20 03:47:41;;;;;;;31.50;13.90;;;;;;;-2.16;100.00;99727.15;273664;1269;22984;-80
2024/01/20 03:53:43;;;;;;;31.70;14.10;;;;;;;-2.26;100.00;99719.35;273678;1269;22320;-79
2024/01/20 03:59:46;;;;;;;41.20;15.50;;;;;;;-2.40;100.00;99711.93;273530;1273;23073;-79
2024/01/20 04:05:48;;;;;;;41.70;17.00;;;;;;;-2.51;100.00;99719.09;273514;1269;22294;-80
2024/01/20 04:12:10;;;;;;;44.90;18.40;;;;;;;-2.68;100.00;99728.46;273604;1269;22676;-80
2024/01/20 04:18:12;;;;;;;25.30;11.80;;;;;;;-2.79;100.00;99725.38;273524;1262;23193;-80
2024/01/20 04:24:15;;;;;;;30.70;13.20;;;;;;;-2.96;100.00;99732.20;273648;1263;22198;-80
2024/01/20 04:30:17;;;;;;;25.50;12.00;;;;;;;-2.94;100.00;99733.92;273608;1273;22420;-80
2024/01/20 04:36:19;;;;;;;34.70;13.70;;;;;;;-2.95;100.00;99733.86;273676;1269;22399;-81
2024/01/20 04:42:22;;;;;;;39.50;14.60;;;;;;;-3.00;100.00;99744.27;273848;1276;22372;-81
2024/01/20 04:48:25;;;;;;;36.90;19.10;;;;;;;-3.09;100.00;99743.94;273278;1256;23266;-81
2024/01/20 04:54:52;;;;;;;35.10;17.40;;;;;;;-3.23;100.00;99749.87;273751;1269;23147;-82
2024/01/20 05:00:58;;;;;;;25.80;14.10;;;;;;;-3.31;100.00;99753.74;271517;1269;22408;-82
2024/01/20 05:07:20;;;;;;;42.10;19.70;;;;;;;-3.36;100.00;99752.71;272788;1270;22748;-82
2024/01/20 05:13:45;;;;;;;43.80;20.20;;;;;;;-3.44;100.00;99762.60;273036;1269;23220;-82
2024/01/20 05:19:50;;;;;;;42.00;18.50;;;;;;;-3.59;100.00;99766.80;272310;1269;22570;-81
2024/01/20 05:25:52;;;;;;;46.50;18.80;;;;;;;-3.69;100.00;99766.19;271791;1269;22176;-81
2024/01/20 05:32:14;;;;;;;37.20;16.20;;;;;;;-3.78;100.00;99769.95;272524;1269;22555;-81
2024/01/20 05:38:16;;;;;;;42.80;17.70;;;;;;;-3.93;100.00;99774.73;271576;1267;970068;-80
2024/01/20 05:44:18;;;;;;;46.90;19.50;;;;;;;-4.01;100.00;99779.98;273686;1270;22964;-81
2024/01/20 05:50:21;;;;;;;45.30;18.30;;;;;;;-4.06;100.00;99785.65;272343;1269;22363;-81
2024/01/20 05:56:28;;;;;;;47.00;20.60;;;;;;;-4.11;100.00;99790.27;273570;1269;22229;-81
2024/01/20 06:02:35;;;;;;;50.00;19.90;;;;;;;-4.10;100.00;99811.34;273751;1269;22428;-80
2024/01/20 06:08:57;;;;;;;40.70;18.30;;;;;;;-4.15;100.00;99815.70;273781;1269;23194;-81
2024/01/20 06:15:20;;;;;;;36.30;16.80;;;;;;;-4.21;100.00;99819.94;273579;1270;22203;-80
2024/01/20 06:21:24;;;;;;;33.50;15.20;;;;;;;-4.18;100.00;99824.67;273561;1265;23434;-80
2024/01/20 06:27:30;;;;;;;44.20;19.30;;;;;;;-4.13;100.00;99822.60;273739;1269;22357;-80
2024/01/20 06:34:11;;;;;;;52.70;19.80;;;;;;;-4.11;100.00;99834.75;272612;1269;22564;-81
2024/01/20 06:40:13;;;;;;;56.20;20.80;;;;;;;-4.12;100.00;99851.76;273397;1270;22550;-80
2024/01/20 06:46:56;;;;;;;54.20;21.70;;;;;;;-4.08;100.00;99860.45;273725;1272;23327;-80
2024/01/20 06:53:18;;;;;;;48.40;22.80;;;;;;;-4.00;100.00;99857.92;273636;1277;22361;-80
2024/01/20 07:00:00;;;;;;;52.60;21.10;;;;;;;-3.87;100.00;99864.95;273808;1269;22305;-79
2024/01/20 07:06:03;;;;;;;48.50;21.20;;;;;;;-3.74;100.00;99870.90;273665;1269;22199;-80
2024/01/20 07:12:06;;;;;;;56.50;22.20;;;;;;;-3.63;100.00;99874.52;273734;1270;22359;-81
2024/01/20 07:18:28;;;;;;;71.30;23.90;;;;;;;-3.54;100.00;99876.39;273751;1269;22402;-80
2024/01/20 07:25:13;;;;;;;70.40;24.00;;;;;;;-3.47;100.00;99882.15;273521;1272;22220;-79
2024/01/20 07:32:13;;;;;;;54.20;21.80;;;;;;;-3.37;100.00;99890.20;272564;1269;22630;-80
2024/01/20 07:38:15;;;;;;;84.40;28.30;;;;;;;-3.05;100.00;99892.17;272799;1272;22237;-80
2024/01/20 07:44:23;;;;;;;45.60;19.00;;;;;;;-2.63;100.00;99892.83;273446;1270;22222;-79
2024/01/20 07:50:42;;;;;;;57.00;20.40;;;;;;;-2.21;100.00;99891.73;273588;1266;22183;-78
2024/01/20 07:57:04;;;;;;;41.80;19.50;;;;;;;-1.91;100.00;99899.58;271469;1269;22489;-79
2024/01/20 08:03:07;;;;;;;41.70;17.60;;;;;;;-1.86;100.00;99894.36;273697;1263;23540;-79
2024/01/20 08:09:10;;;;;;;41.50;19.50;;;;;;;-1.82;100.00;99900.27;273552;1272;22408;-80
2024/01/20 08:15:12;;;;;;;39.00;19.60;;;;;;;-1.71;100.00;99913.55;273125;1253;25457;-79
2024/01/20 08:21:13;;;;;;;41.80;18.90;;;;;;;-1.59;100.00;99919.95;271136;1270;24153;-79
2024/01/20 08:27:50;;;;;;;32.60;16.20;;;;;;;-1.46;100.00;99928.45;273638;1276;22267;-80
2024/01/20 08:33:53;;;;;;;31.50;16.40;;;;;;;-1.34;100.00;99922.88;273721;1269;22283;-80
2024/01/20 08:40:16;;;;;;;41.90;18.50;;;;;;;-1.21;100.00;99921.48;273755;1269;22232;-79
2024/01/20 08:46:38;;;;;;;34.10;15.30;;;;;;;-1.07;100.00;99926.08;271883;1266;22554;-80
2024/01/20 08:52:40;;;;;;;29.20;14.40;;;;;;;-0.93;100.00;99936.27;272885;1266;22202;-80
2024/01/20 08:58:43;;;;;;;37.00;16.50;;;;;;;-0.82;100.00;99941.59;273733;1269;23290;-81
2024/01/20 09:04:45;;;;;;;28.40;13.60;;;;;;;-0.71;100.00;99944.10;271984;1273;22562;-81
2024/01/20 09:11:07;;;;;;;28.50;11.90;;;;;;;-0.62;100.00;99949.11;270942;1269;22556;-81
2024/01/20 09:17:42;;;;;;;23.00;11.00;;;;;;;-0.50;100.00;99950.70;271056;1272;23357;-80
2024/01/20 09:23:45;;;;;;;24.90;12.40;;;;;;;-0.35;100.00;99963.27;270611;1269;22584;-83
2024/01/20 09:29:47;;;;;;;28.80;11.90;;;;;;;-0.19;100.00;99969.77;273553;1276;22191;-82
2024/01/20 09:35:51;;;;;;;37.60;15.30;;;;;;;-0.05;100.00;99970.10;273811;1274;22182;-84
2024/01/20 09:41:57;;;;;;;49.90;18.00;;;;;;;0.16;100.00;99972.23;271515;1269;22473;-85
2024/01/20 09:48:01;;;;;;;38.90;18.20;;;;;;;0.39;100.00;99967.91;272398;1269;22274;-83
2024/01/20 09:54:38;;;;;;;28.60;14.20;;;;;;;0.72;100.00;99968.15;273454;1269;22233;-84
2024/01/20 10:01:36;;;;;;;22.80;12.00;;;;;;;1.00;100.00;99971.22;272788;1269;22251;-84
2024/01/20 10:07:44;;;;;;;30.10;12.80;;;;;;;1.03;100.00;99968.84;273592;1277;23232;-84
2024/01/20 10:13:49;;;;;;;28.40;12.80;;;;;;;0.99;100.00;99962.64;272756;1269;22614;-84
2024/01/20 10:20:02;;;;;;;16.00;7.30;;;;;;;0.97;100.00;99960.25;272531;1275;21759;-85
2024/01/20 10:26:52;;;;;;;24.30;11.00;;;;;;;0.99;100.00;99958.88;272028;1269;22270;-85
2024/01/20 10:33:41;;;;;;;18.40;9.00;;;;;;;1.10;100.00;99960.02;271796;1269;22513;-84
2024/01/20 10:39:46;;;;;;;20.10;9.20;;;;;;;1.26;99.96;99947.93;273218;1275;22410;-85
2024/01/20 10:46:21;;;;;;;14.70;6.40;;;;;;;1.46;99.95;99944.09;273713;1276;22165;-84
2024/01/20 10:53:03;;;;;;;20.10;7.20;;;;;;;1.53;99.95;99945.02;273591;1273;23084;-84
2024/01/20 11:00:08;;;;;;;12.40;5.30;;;;;;;1.60;99.53;99948.31;273791;1270;22266;-84
2024/01/20 11:06:21;;;;;;;14.20;6.00;;;;;;;1.74;99.20;99945.71;273668;1275;22229;-84
2024/01/20 11:12:24;;;;;;;17.30;5.50;;;;;;;1.81;99.01;99933.80;272175;1269;23956;-83
2024/01/20 11:18:55;;;;;;;10.30;4.20;;;;;;;1.88;99.12;99932.05;271688;1270;22269;-85
2024/01/20 11:25:24;;;;;;;15.70;4.00;;;;;;;1.94;97.77;99925.89;273518;1276;22775;-85
2024/01/20 11:31:46;;;;;;;12.50;4.50;;;;;;;1.99;97.08;99920.58;271494;1270;23479;-85
2024/01/20 11:38:33;;;;;;;7.60;4.40;;;;;;;2.00;97.06;99907.05;273747;1276;22230;-85
2024/01/20 11:45:30;;;;;;;8.30;3.50;;;;;;;2.02;95.76;99889.14;273824;1276;22198;-86
2024/01/20 11:52:20;;;;;;;13.00;4.00;;;;;;;1.97;95.32;99878.91;271428;1269;22560;-85
2024/01/20 11:58:22;;;;;;;10.60;4.30;;;;;;;1.94;94.64;99876.38;273588;1273;22270;-86
2024/01/20 12:04:27;;;;;;;9.40;4.30;;;;;;;1.90;94.10;99876.08;273306;1273;22195;-85
2024/01/20 12:10:34;;;;;;;15.10;5.50;;;;;;;1.86;94.43;99871.61;273675;1274;22252;-85
2024/01/20 12:17:22;;;;;;;17.10;6.10;;;;;;;1.83;93.87;99864.36;273561;1277;22233;-86
2024/01/20 12:23:24;;;;;;;16.20;7.70;;;;;;;1.75;93.38;99869.10;273930;1270;22227;-86
2024/01/20 12:29:26;;;;;;;25.30;9.70;;;;;;;1.61;92.62;99870.77;273865;1276;22596;-86
2024/01/20 12:36:31;;;;;;;21.90;9.60;;;;;;;1.56;92.89;99866.88;273564;1270;22501;-86
2024/01/20 12:43:13;;;;;;;22.30;9.60;;;;;;;1.54;93.21;99867.34;273772;1270;22955;-87
2024/01/20 12:49:47;;;;;;;26.60;10.30;;;;;;;1.55;92.46;99880.00;273709;1270;23577;-87
2024/01/20 12:56:44;;;;;;;;;;;;;;;;;;;;;
2024/01/20 13:03:47;;;;;;;22.60;10.90;;;;;;;1.55;92.46;99894.80;273548;1270;22213;-86
2024/01/20 13:10:57;;;;;;;;;;;;;;;;;;;;;
2024/01/20 13:18:17;;;;;;;21.00;10.40;;;;;;;1.37;92.31;99896.36;271798;1274;22214;-88
2024/01/20 13:24:20;;;;;;;25.70;10.90;;;;;;;1.29;92.26;99894.83;270495;1274;22555;-87
2024/01/20 13:31:34;;;;;;;;;;;;;;;;;;;;;
2024/01/20 13:39:14;;;;;;;26.30;11.30;;;;;;;1.12;92.03;99892.54;271226;1280;22269;-85
2024/01/20 13:45:27;;;;;;;29.20;12.60;;;;;;;1.04;92.26;99889.46;272704;1273;22265;-85
2024/01/20 13:51:56;;;;;;;27.00;12.50;;;;;;;1.00;92.62;99890.96;272562;1276;23408;-85
2024/01/20 13:58:35;;;;;;;27.10;11.30;;;;;;;0.94;92.46;99896.50;272112;1269;26711;-85
2024/01/20 14:04:57;;;;;;;20.80;10.60;;;;;;;0.88;92.82;99895.66;271240;1269;22625;-85
2024/01/20 14:11:06;;;;;;;24.50;10.80;;;;;;;0.83;92.34;99897.35;272000;1270;22217;-85
2024/01/20 14:17:29;;;;;;;27.70;13.00;;;;;;;0.78;92.32;99899.72;273737;1271;23248;-85
2024/01/20 14:23:53;;;;;;;27.90;12.60;;;;;;;0.72;92.21;99903.25;273463;1272;22292;-85
2024/01/20 14:29:54;;;;;;;24.60;12.00;;;;;;;0.64;92.30;99910.73;273624;1276;22216;-85
2024/01/20 14:36:40;;;;;;;30.90;13.00;;;;;;;0.56;92.30;99912.98;273502;1269;22352;-85
2024/01/20 14:43:08;;;;;;;29.40;13.00;;;;;;;0.46;91.96;99909.45;272710;1269;22271;-85
2024/01/20 14:50:11;;;;;;;31.30;14.80;;;;;;;0.36;92.11;99918.92;273476;1270;22250;-85
2024/01/20 14:56:43;;;;;;;31.40;14.60;;;;;;;0.21;92.42;99931.69;273427;1273;22247;-85
2024/01/20 15:02:47;;;;;;;32.30;15.40;;;;;;;0.12;92.12;99939.52;273666;1265;22293;-85
2024/01/20 15:08:53;;;;;;;33.30;14.70;;;;;;;0.04;92.21;99947.77;273282;1269;22305;-86
2024/01/20 15:15:17;;;;;;;29.10;13.50;;;;;;;-0.09;92.23;99959.26;272914;1275;22250;-85
2024/01/20 15:22:23;;;;;;;34.10;16.30;;;;;;;-0.20;92.38;99968.97;273375;1269;22283;-85
2024/01/20 15:28:48;;;;;;;36.80;17.00;;;;;;;-0.27;92.63;99973.98;273201;1269;22397;-86
2024/01/20 15:34:49;;;;;;;35.90;16.00;;;;;;;-0.35;93.41;99967.33;273283;1269;23863;-87
2024/01/20 15:40:55;;;;;;;36.70;17.10;;;;;;;-0.45;93.15;99980.03;273188;1269;22267;-86
2024/01/20 15:47:18;;;;;;;36.50;18.20;;;;;;;-0.54;93.05;99990.85;273432;1269;22965;-86
2024/01/20 15:54:00;;;;;;;37.10;17.80;;;;;;;-0.62;93.09;99996.59;273356;1274;23502;-86
2024/01/20 16:00:42;;;;;;;42.00;19.70;;;;;;;-0.72;92.86;100014.83;272307;1276;22261;-86
2024/01/20 16:06:47;;;;;;;39.90;19.70;;;;;;;-0.79;92.92;100016.20;273314;1273;22147;-86
2024/01/20 16:13:30;;;;;;;42.50;20.20;;;;;;;-0.84;93.08;100015.73;273314;1271;22202;-86
2024/01/20 16:20:37;;;;;;;47.50;19.00;;;;;;;-0.90;93.26;100012.75;273407;1269;22443;-85
2024/01/20 16:26:40;;;;;;;44.80;18.30;;;;;;;-0.99;93.93;100006.45;273424;1270;22227;-85
2024/01/20 16:32:52;;;;;;;36.60;16.70;;;;;;;-1.04;93.45;100007.70;273106;1270;22244;-85
2024/01/20 16:38:57;;;;;;;44.90;17.00;;;;;;;-1.04;92.98;100018.67;273086;1274;23407;-85
2024/01/20 16:45:57;;;;;;;31.30;14.60;;;;;;;-1.04;92.82;100019.38;273240;1276;23594;-84
2024/01/20 16:52:35;;;;;;;36.10;15.30;;;;;;;-1.03;92.73;100029.09;271969;1269;23013;-84
2024/01/20 16:59:18;;;;;;;38.90;16.20;;;;;;;-1.05;92.29;100033.73;271958;1269;22260;-84
2024/01/20 17:05:20;;;;;;;34.80;14.30;;;;;;;-1.05;91.87;100041.15;273208;1270;23454;-84
2024/01/20 17:11:29;;;;;;;34.10;14.90;;;;;;;-1.05;91.68;100049.73;271632;1269;22974;-83
2024/01/20 17:17:37;;;;;;;32.50;12.80;;;;;;;-1.08;91.48;100062.87;273144;1269;22425;-84
2024/01/20 17:23:39;;;;;;;36.50;12.90;;;;;;;-1.10;91.62;100072.60;273556;1263;22257;-84
2024/01/20 17:29:44;;;;;;;26.00;12.50;;;;;;;-1.14;91.73;100078.30;273424;1272;22301;-83
2024/01/20 17:35:52;;;;;;;29.30;13.70;;;;;;;-1.12;91.59;100082.82;268074;1269;6173162;-82
2024/01/20 17:42:32;;;;;;;28.40;12.50;;;;;;;-1.09;91.15;100088.40;271681;1269;22294;-82
2024/01/20 17:48:38;;;;;;;36.30;14.60;;;;;;;-1.10;91.11;100092.48;272197;1269;22263;-82
2024/01/20 17:54:42;;;;;;;36.50;14.80;;;;;;;-1.13;90.76;100104.26;273339;1269;23076;-82
2024/01/20 18:01:42;;;;;;;41.70;17.00;;;;;;;-1.14;90.28;100115.23;273453;1269;23027;-81
2024/01/20 18:07:49;;;;;;;29.60;13.50;;;;;;;-1.17;90.06;100125.80;273418;1275;22356;-81
2024/01/20 18:13:53;;;;;;;27.80;13.50;;;;;;;-1.17;89.81;100136.94;273487;1269;22951;-81
2024/01/20 18:20:16;;;;;;;24.90;12.40;;;;;;;-1.18;89.82;100150.97;273601;1276;24247;-81
2024/01/20 18:26:19;;;;;;;28.20;12.00;;;;;;;-1.16;89.99;100149.83;257986;1269;20003577;-81
2024/01/20 18:32:34;;;;;;;;;;;;;;;-1.16;89.81;100157.64;273016;1270;22570;-82
2024/01/20 18:39:07;;;;;;;27.10;11.50;;;;;;;-1.19;89.64;100170.52;272982;1267;23393;-82
2024/01/20 18:45:49;;;;;;;21.90;10.70;;;;;;;-1.22;89.47;100176.12;272965;1272;22357;-81
2024/01/20 18:52:12;;;;;;;27.50;11.80;;;;;;;-1.19;89.47;100181.42;273139;1272;22312;-80
2024/01/20 18:58:35;;;;;;;24.50;10.60;;;;;;;-1.13;89.66;100185.46;273123;1266;23351;-81
2024/01/20 19:04:38;;;;;;;23.20;11.70;;;;;;;-1.03;89.68;100190.73;273374;1269;22252;-80
2024/01/20 19:10:41;;;;;;;23.80;10.40;;;;;;;-0.96;89.40;100205.45;273033;1269;22639;-80
2024/01/20 19:16:42;;;;;;;20.90;10.50;;;;;;;-0.95;89.50;100214.80;271555;1269;22516;-82
2024/01/20 19:22:48;;;;;;;21.80;10.30;;;;;;;-0.92;89.80;100220.13;272057;1269;22514;-81
2024/01/20 19:28:50;;;;;;;19.00;10.60;;;;;;;-0.85;89.23;100220.65;272198;1269;22645;-80
2024/01/20 19:34:52;;;;;;;20.20;11.60;;;;;;;-0.80;88.74;100222.41;271622;1269;22386;-81
2024/01/20 19:40:54;;;;;;;26.60;12.00;;;;;;;-0.77;89.02;100222.59;273137;1269;22301;-81
2024/01/20 19:46:56;;;;;;;27.90;12.40;;;;;;;-0.77;89.15;100231.35;271275;1269;25396;-81
2024/01/20 19:53:30;;;;;;;24.70;13.10;;;;;;;-0.75;88.91;100234.89;273153;1272;22293;-81
2024/01/20 19:59:55;;;;;;;29.90;12.80;;;;;;;-0.70;88.54;100246.45;273417;1272;22200;-81
2024/01/20 20:05:57;;;;;;;22.00;11.20;;;;;;;-0.66;88.85;100249.82;273551;1269;22245;-81
2024/01/20 20:12:19;;;;;;;26.00;10.70;;;;;;;-0.63;88.66;100257.89;273487;1269;22325;-81
2024/01/20 20:18:21;;;;;;;21.50;10.10;;;;;;;-0.60;88.47;100265.15;273528;1269;22335;-81
2024/01/20 20:24:26;;;;;;;24.80;10.60;;;;;;;-0.57;88.48;100266.05;273453;1269;22205;-81
2024/01/20 20:30:52;;;;;;;20.90;10.70;;;;;;;-0.51;88.16;100262.55;273390;1269;22742;-81
2024/01/20 20:36:56;;;;;;;22.80;9.80;;;;;;;-0.47;88.19;100265.29;273374;1269;23048;-81
2024/01/20 20:43:19;;;;;;;24.20;10.50;;;;;;;-0.45;88.59;100281.42;273660;1273;23496;-81
2024/01/20 20:49:21;;;;;;;21.40;9.50;;;;;;;-0.42;88.59;100277.91;273317;1269;22437;-81
2024/01/20 20:55:43;;;;;;;20.20;9.50;;;;;;;-0.40;88.21;100288.99;273453;1276;22183;-81
2024/01/20 21:01:55;;;;;;;24.10;11.40;;;;;;;-0.39;88.39;100284.04;273455;1272;22380;-81
2024/01/20 21:08:38;;;;;;;26.80;10.70;;;;;;;-0.38;88.37;100280.92;273199;1269;22266;-81
2024/01/20 21:14:40;;;;;;;19.20;9.30;;;;;;;-0.37;88.54;100278.50;273382;1269;22351;-81
2024/01/20 21:21:07;;;;;;;21.80;8.90;;;;;;;-0.37;88.63;100283.02;273547;1269;22497;-81
2024/01/20 21:27:33;;;;;;;22.40;9.00;;;;;;;-0.37;88.77;100298.67;273397;1269;22270;-81
2024/01/20 21:34:16;;;;;;;18.70;8.90;;;;;;;-0.33;88.87;100304.38;273567;1276;22247;-81
2024/01/20 21:40:18;;;;;;;20.20;9.50;;;;;;;-0.31;88.95;100305.02;273610;1259;23331;-81
2024/01/20 21:46:40;;;;;;;22.60;10.70;;;;;;;-0.27;88.68;100306.61;271147;1265;23765;-81
2024/01/20 21:52:42;;;;;;;18.10;8.40;;;;;;;-0.23;88.94;100315.39;273216;1269;22351;-82
2024/01/20 21:58:45;;;;;;;26.10;11.30;;;;;;;-0.21;89.04;100324.80;273708;1276;23202;-81
2024/01/20 22:04:46;;;;;;;23.60;11.20;;;;;;;-0.20;89.28;100326.95;271247;1269;22314;-83
2024/01/20 22:10:54;;;;;;;27.20;14.00;;;;;;;-0.18;89.23;100327.54;271060;1270;22599;-81
2024/01/20 22:16:56;;;;;;;27.70;12.70;;;;;;;-0.17;89.10;100330.07;271051;1269;22519;-82
2024/01/20 22:23:38;;;;;;;29.50;12.30;;;;;;;-0.16;89.09;100331.78;271352;1269;22543;-81
2024/01/20 22:30:20;;;;;;;26.90;13.20;;;;;;;-0.15;88.91;100336.84;273646;1269;22182;-81
2024/01/20 22:36:22;;;;;;;23.90;10.40;;;;;;;-0.14;89.22;100336.27;273361;1269;22223;-82
2024/01/20 22:42:25;;;;;;;23.50;10.90;;;;;;;-0.10;89.28;100340.88;273685;1269;22263;-82
2024/01/20 22:48:31;;;;;;;21.30;10.20;;;;;;;-0.09;89.24;100353.41;272400;1269;22551;-81
2024/01/20 22:54:33;;;;;;;16.80;8.60;;;;;;;-0.07;89.10;100361.38;271549;1265;22971;-80
2024/01/20 23:00:38;;;;;;;22.80;9.90;;;;;;;-0.06;89.32;100361.55;272914;1269;22189;-82
2024/01/20 23:07:21;;;;;;;25.70;10.10;;;;;;;-0.06;89.62;100362.73;273798;1269;22179;-81
2024/01/20 23:14:24;;;;;;;19.70;9.60;;;;;;;-0.07;89.28;100362.30;273918;1276;23378;-81
2024/01/20 23:21:06;;;;;;;19.00;9.00;;;;;;;-0.05;89.39;100361.48;273814;1269;22255;-82
2024/01/20 23:27:48;;;;;;;23.70;10.50;;;;;;;-0.05;89.95;100361.98;273725;1275;22969;-82
2024/01/20 23:34:11;;;;;;;19.90;10.80;;;;;;;-0.03;89.77;100361.31;273642;1276;22273;-82
2024/01/20 23:40:13;;;;;;;21.30;9.20;;;;;;;-0.04;90.03;100369.66;273698;1269;22219;-82
2024/01/20 23:46:15;;;;;;;25.00;9.70;;;;;;;-0.09;90.86;100376.41;273338;1269;22541;-82
2024/01/20 23:52:16;;;;;;;24.40;10.60;;;;;;;-0.13;91.03;100383.73;271671;1269;22900;-83
2024/01/20 23:58:18;;;;;;;22.80;10.70;;;;;;;-0.17;91.44;100386.53;271940;1269;23447;-82
